Terminal Aerodrome Forecast
Issued by NWS Jackson, MS

Home | Current Version | Previous Version | Text Only | Print | Product List | Glossary On
Versions: 1 2 3 4 5 6 7 8 9 10 11 12
000
FTUS44 KJAN 301100
TAFMEI
TAF
KMEI 301136Z 3012/3112 19004KT P6SM FEW030 OVC200
     FM301800 19010KT 5SM SHRA VCTS SCT025 BKN035CB
     FM302300 17005KT P6SM BKN080
     FM310700 16004KT P6SM OVC015=

USA.gov is the U.S. government's official web portal to all federal, state and local government web resources and services.